createdAt,value
2018-05-06T16:45:20.807Z,29.30
2018-05-06T16:47:48.297Z,29.20
2018-05-06T16:50:15.756Z,27.90
2018-05-06T16:52:43.279Z,26.90
2018-05-06T16:55:10.661Z,26.40
2018-05-06T16:57:38.084Z,26.10
2018-05-06T17:00:05.564Z,25.90
2018-05-06T17:02:32.987Z,25.80
2018-05-06T17:05:01.179Z,25.60
2018-05-06T17:07:28.648Z,25.60
2018-05-06T17:09:56.083Z,25.50
2018-05-06T17:12:23.505Z,25.40
2018-05-06T17:14:51.737Z,25.20
2018-05-06T17:17:19.164Z,25.10
2018-05-06T17:19:46.654Z,25.10
2018-05-06T17:22:14.081Z,25.00
2018-05-06T17:24:41.507Z,25.00
2018-05-06T17:27:09.731Z,24.80
2018-05-06T17:29:37.165Z,24.80
2018-05-06T17:32:04.585Z,24.80
2018-05-06T17:34:32.016Z,24.70
2018-05-06T17:36:59.457Z,24.70
2018-05-06T17:39:26.913Z,24.70
2018-05-06T17:41:54.345Z,24.60
2018-05-06T17:44:22.593Z,24.50
2018-05-06T17:46:50.813Z,24.30
2018-05-06T17:49:18.237Z,24.20
2018-05-06T17:51:45.660Z,24.20
2018-05-06T17:54:13.848Z,24.10
2018-05-06T17:56:42.056Z,24.10
2018-05-06T17:59:09.465Z,24.00
2018-05-06T18:01:36.932Z,24.00
2018-05-06T18:04:04.325Z,24.20
2018-05-06T18:06:31.795Z,24.80
2018-05-06T18:08:59.221Z,25.40
2018-05-06T18:11:26.704Z,26.90
2018-05-06T18:13:54.164Z,27.40
2018-05-06T18:16:21.600Z,27.00
2018-05-06T18:18:49.024Z,26.80
2018-05-06T18:21:17.229Z,25.90
2018-05-06T18:23:44.709Z,25.90
2018-05-06T18:26:12.143Z,25.20
2018-05-06T18:28:39.574Z,24.90
2018-05-06T18:31:07.003Z,26.20
2018-05-06T18:33:34.428Z,27.30
2018-05-06T18:36:01.862Z,27.60
2018-05-06T18:38:29.281Z,26.40
2018-05-06T18:40:57.486Z,24.60
2018-05-06T18:43:24.961Z,24.50
2018-05-06T18:45:52.404Z,23.90
2018-05-06T18:48:19.816Z,23.40
2018-05-06T18:50:48.149Z,22.70
2018-05-06T18:53:15.577Z,22.60
2018-05-06T18:55:43.024Z,22.40
2018-05-06T18:58:10.445Z,22.20
2018-05-06T19:00:37.872Z,21.90
2018-05-06T19:03:05.325Z,21.80
2018-05-06T19:05:32.780Z,21.60
2018-05-06T19:08:00.206Z,21.40
2018-05-06T19:10:27.640Z,21.30
2018-05-06T19:12:55.836Z,21.00
2018-05-06T19:15:23.336Z,21.00
2018-05-06T19:17:50.760Z,20.90
2018-05-06T19:20:18.232Z,20.80
2018-05-06T19:22:45.670Z,20.70
2018-05-06T19:25:13.146Z,20.60
2018-05-06T19:27:40.569Z,20.50
2018-05-06T19:30:07.988Z,20.40
2018-05-06T19:32:36.967Z,20.20
2018-05-06T19:35:04.401Z,20.20
2018-05-06T19:37:31.843Z,20.10
2018-05-06T19:39:59.261Z,20.00
2018-05-06T19:42:27.475Z,19.80
2018-05-06T19:44:54.940Z,19.80
2018-05-06T19:47:22.377Z,19.80
2018-05-06T19:49:50.612Z,19.70
2018-05-06T19:52:18.816Z,19.50
2018-05-06T19:54:46.302Z,19.50
2018-05-06T19:57:13.728Z,19.50
2018-05-06T19:59:41.160Z,19.40
2018-05-06T20:02:09.354Z,19.30
2018-05-06T20:04:36.832Z,19.30
2018-05-06T20:07:04.261Z,19.30
2018-05-06T20:09:31.685Z,19.20
2018-05-06T20:11:59.118Z,19.20
2018-05-06T20:14:26.549Z,19.10
2018-05-06T20:16:54.012Z,19.10
2018-05-06T20:19:21.446Z,19.10
2018-05-06T20:21:48.866Z,19.00
2018-05-06T20:24:17.108Z,18.90
2018-05-06T20:26:44.545Z,18.90
2018-05-06T20:29:12.004Z,18.90
2018-05-06T20:31:39.464Z,18.80
2018-05-06T20:34:06.930Z,18.80
2018-05-06T20:36:34.895Z,18.70
2018-05-06T20:39:02.315Z,18.70
2018-05-06T20:41:29.807Z,18.60
2018-05-06T20:43:57.237Z,18.60
2018-05-06T20:46:24.664Z,18.50
2018-05-06T20:48:52.880Z,18.40
2018-05-06T20:51:20.340Z,18.40
2018-05-06T20:53:47.761Z,18.40
2018-05-06T20:56:15.209Z,18.30
2018-05-06T20:58:43.438Z,18.20
2018-05-06T21:01:10.866Z,18.10
2018-05-06T21:03:38.318Z,18.10
2018-05-06T21:06:05.724Z,18.10
2018-05-06T21:08:33.255Z,18.00
2018-05-06T21:11:00.735Z,18.00
2018-05-06T21:13:28.155Z,17.90
2018-05-06T21:15:55.581Z,17.90
2018-05-06T21:18:23.792Z,17.80
2018-05-06T21:20:51.248Z,17.70
2018-05-06T21:23:18.696Z,17.70
2018-05-06T21:25:46.117Z,17.70
2018-05-06T21:28:13.556Z,17.70
2018-05-06T21:30:41.796Z,17.60
2018-05-06T21:33:09.280Z,17.60
2018-05-06T21:35:36.701Z,17.60
2018-05-06T21:38:04.152Z,17.50
2018-05-06T21:40:31.608Z,17.40
2018-05-06T21:42:59.060Z,17.40
2018-05-06T21:45:26.499Z,17.30
2018-05-06T21:47:53.973Z,17.30
2018-05-06T21:50:21.400Z,17.20
2018-05-06T21:52:48.840Z,17.10
2018-05-06T21:55:17.065Z,17.00
2018-05-06T21:57:44.516Z,17.00
2018-05-06T22:00:11.972Z,16.90
2018-05-06T22:02:39.388Z,16.80
2018-05-06T22:05:06.813Z,16.80
2018-05-06T22:07:34.317Z,16.70
2018-05-06T22:10:01.673Z,16.60
2018-05-06T22:12:29.148Z,16.60
2018-05-06T22:14:56.584Z,16.50
2018-05-06T22:17:24.008Z,16.40
2018-05-06T22:19:52.199Z,16.20
2018-05-06T22:22:19.629Z,16.20
2018-05-06T22:24:47.821Z,16.10
2018-05-06T22:27:15.248Z,16.10
2018-05-06T22:29:44.208Z,16.00
2018-05-06T22:32:11.674Z,15.90
2018-05-06T22:34:39.107Z,15.90
2018-05-06T22:37:06.525Z,15.90
2018-05-06T22:39:34.749Z,15.80
2018-05-06T22:42:02.206Z,15.80
2018-05-06T22:44:29.628Z,15.80
2018-05-06T22:46:57.052Z,15.70
2018-05-06T22:49:25.288Z,15.70
2018-05-06T22:51:52.712Z,15.60
2018-05-06T22:54:20.148Z,15.60
2018-05-06T22:56:48.336Z,15.50
2018-05-06T22:59:15.824Z,15.50
2018-05-06T23:01:43.281Z,15.50
2018-05-06T23:04:10.711Z,15.50
2018-05-06T23:06:38.133Z,15.40
2018-05-06T23:09:06.328Z,15.40
2018-05-06T23:11:33.756Z,15.30
2018-05-06T23:14:01.988Z,15.30
2018-05-06T23:16:29.424Z,15.30
2018-05-06T23:18:56.877Z,15.30
2018-05-06T23:21:25.845Z,15.20
2018-05-06T23:23:54.040Z,15.20
2018-05-06T23:26:21.526Z,15.20
2018-05-06T23:28:48.952Z,15.10
2018-05-06T23:31:16.436Z,15.10
2018-05-06T23:33:43.865Z,15.10
2018-05-06T23:36:11.292Z,15.10
2018-05-06T23:38:39.496Z,15.00
2018-05-06T23:41:06.929Z,15.00
2018-05-06T23:43:35.129Z,14.90
2018-05-06T23:46:02.561Z,14.90
2018-05-06T23:48:30.773Z,14.80
2018-05-06T23:50:58.176Z,14.80
2018-05-06T23:53:26.377Z,14.70
2018-05-06T23:55:53.835Z,14.70
2018-05-06T23:58:21.331Z,14.70
